Time;durP1;ratioP1;P1;durP2;ratioP2;P2;SDS_P1;SDS_P2;PMS_P1;PMS_P2;Temp;Humidity;BMP_temperature;BMP_pressure;BME280_temperature;BME280_humidity;BME280_pressure;Samples;Min_cycle;Max_cycle;Signal;HPM_P1;HPM_P2
2023/09/29 00:00:13;;;;;;;2.72;2.40;;;21.70;57.10;;;;;;4978644;28;20234;-79
2023/09/29 00:02:40;;;;;;;3.05;2.60;;;21.70;57.20;;;;;;4978408;28;20204;-79
2023/09/29 00:05:08;;;;;;;3.33;2.90;;;21.70;57.20;;;;;;4977210;28;20201;-79
2023/09/29 00:07:37;;;;;;;2.80;2.60;;;21.70;57.30;;;;;;4977037;28;20747;-79
2023/09/29 00:10:08;;;;;;;3.58;3.00;;;21.70;57.30;;;;;;4978634;28;20245;-79
2023/09/29 00:12:37;;;;;;;3.13;2.67;;;21.70;57.30;;;;;;5001834;28;20210;-79
2023/09/29 00:15:05;;;;;;;3.72;2.67;;;21.60;57.20;;;;;;5002302;28;20191;-79
2023/09/29 00:17:32;;;;;;;3.28;2.70;;;21.60;57.30;;;;;;5001727;28;20182;-79
2023/09/29 00:19:59;;;;;;;3.60;2.80;;;21.60;57.30;;;;;;5001480;28;20217;-79
2023/09/29 00:22:26;;;;;;;3.03;2.72;;;21.70;57.40;;;;;;4978785;28;20178;-79
2023/09/29 00:24:54;;;;;;;3.05;2.75;;;21.70;57.40;;;;;;4980546;28;20202;-79
2023/09/29 00:27:21;;;;;;;3.47;2.70;;;21.60;57.30;;;;;;4978659;28;20226;-79
2023/09/29 00:29:51;;;;;;;3.05;2.70;;;21.60;57.30;;;;;;4976979;28;20281;-79
2023/09/29 00:32:19;;;;;;;3.75;2.80;;;21.60;57.30;;;;;;4960264;28;20309;-79
2023/09/29 00:34:46;;;;;;;3.00;2.70;;;21.60;57.30;;;;;;4961270;28;20214;-79
2023/09/29 00:37:14;;;;;;;2.40;2.20;;;21.60;57.30;;;;;;4979175;28;20207;-80
2023/09/29 00:39:42;;;;;;;3.38;2.80;;;21.60;57.30;;;;;;4962382;28;20229;-80
2023/09/29 00:42:09;;;;;;;2.95;2.55;;;21.50;57.30;;;;;;4978754;28;20197;-79
2023/09/29 00:44:36;;;;;;;3.20;2.78;;;21.60;57.40;;;;;;4979330;28;20205;-79
2023/09/29 00:47:05;;;;;;;2.83;2.45;;;21.60;57.40;;;;;;4980364;28;20225;-79
2023/09/29 00:49:32;;;;;;;3.22;2.85;;;21.50;57.30;;;;;;4980721;28;20210;-78
2023/09/29 00:52:00;;;;;;;3.10;2.72;;;21.50;57.30;;;;;;4979288;28;20213;-78
2023/09/29 00:54:28;;;;;;;3.45;2.80;;;21.50;57.40;;;;;;4979092;28;20545;-78
2023/09/29 00:56:58;;;;;;;3.55;2.50;;;21.60;57.40;;;;;;4979801;28;20233;-78
2023/09/29 00:59:25;;;;;;;2.50;2.30;;;21.50;57.40;;;;;;4980090;28;20688;-78
2023/09/29 01:01:53;;;;;;;2.78;2.42;;;21.60;57.50;;;;;;4976676;28;20285;-78
2023/09/29 01:04:23;;;;;;;2.70;2.50;;;21.50;57.40;;;;;;4977358;28;20630;-79
2023/09/29 01:06:50;;;;;;;3.35;2.67;;;21.50;57.50;;;;;;4976012;28;20194;-79
2023/09/29 01:09:17;;;;;;;2.97;2.65;;;21.50;57.50;;;;;;4975722;28;20217;-79
2023/09/29 01:11:44;;;;;;;2.70;2.50;;;21.50;57.50;;;;;;4975647;28;20253;-79
2023/09/29 01:14:12;;;;;;;3.03;2.17;;;21.50;57.50;;;;;;4976394;28;20198;-79
2023/09/29 01:16:39;;;;;;;3.55;2.60;;;21.50;57.50;;;;;;4975548;28;20627;-79
2023/09/29 01:19:08;;;;;;;2.92;2.60;;;21.50;57.50;;;;;;4975255;28;20345;-79
2023/09/29 01:21:36;;;;;;;2.60;2.40;;;21.50;57.50;;;;;;4975594;28;20197;-79
2023/09/29 01:24:07;;;;;;;2.72;2.35;;;21.50;57.50;;;;;;4975319;28;20297;-79
2023/09/29 01:26:34;;;;;;;3.17;2.55;;;21.40;57.50;;;;;;4975618;28;20191;-79
2023/09/29 01:29:01;;;;;;;2.90;2.60;;;21.40;57.50;;;;;;4975050;28;20205;-79
2023/09/29 01:31:28;;;;;;;2.60;2.40;;;21.50;58.20;;;;;;4975164;28;20664;-79
2023/09/29 01:33:55;;;;;;;3.83;2.50;;;21.40;57.50;;;;;;4975846;28;20237;-79
2023/09/29 01:36:22;;;;;;;2.95;2.67;;;21.40;57.60;;;;;;4975138;28;20257;-79
2023/09/29 01:38:49;;;;;;;3.40;2.63;;;21.40;57.60;;;;;;4974802;28;20241;-79
2023/09/29 01:41:18;;;;;;;2.90;2.55;;;21.40;57.60;;;;;;4976083;28;20197;-79
2023/09/29 01:43:46;;;;;;;2.47;2.28;;;21.40;57.60;;;;;;4975489;28;20206;-79
2023/09/29 01:46:15;;;;;;;2.40;2.20;;;21.40;57.60;;;;;;4975817;28;20658;-79
2023/09/29 01:48:42;;;;;;;2.50;2.30;;;21.40;57.60;;;;;;4975161;28;20575;-79
2023/09/29 01:51:09;;;;;;;3.15;2.28;;;21.40;57.60;;;;;;4974184;28;20222;-79
2023/09/29 01:53:37;;;;;;;2.65;2.28;;;21.40;57.60;;;;;;4975039;28;20198;-79
2023/09/29 01:56:03;;;;;;;3.25;2.35;;;21.40;57.70;;;;;;4974894;28;20213;-79
2023/09/29 01:58:33;;;;;;;2.50;2.17;;;21.40;57.70;;;;;;4974824;28;20281;-79
2023/09/29 02:00:59;;;;;;;2.50;2.30;;;21.30;57.60;;;;;;4959035;28;20663;-79
2023/09/29 02:03:27;;;;;;;2.80;2.50;;;21.40;57.70;;;;;;4975008;28;20202;-79
2023/09/29 02:05:55;;;;;;;3.17;2.33;;;21.30;57.70;;;;;;4974826;28;20202;-79
2023/09/29 02:08:24;;;;;;;2.47;2.20;;;21.30;57.70;;;;;;4974758;28;20612;-79
2023/09/29 02:10:52;;;;;;;3.70;2.60;;;21.30;57.70;;;;;;4974683;28;20276;-79
2023/09/29 02:13:19;;;;;;;3.20;2.40;;;21.30;57.70;;;;;;4974473;28;20584;-79
2023/09/29 02:15:47;;;;;;;2.63;2.35;;;21.30;57.80;;;;;;4974483;28;20206;-79
2023/09/29 02:18:14;;;;;;;2.97;2.30;;;21.30;57.80;;;;;;4974421;28;20199;-79
2023/09/29 02:20:46;;;;;;;2.80;2.53;;;21.30;57.80;;;;;;4974262;28;20230;-79
2023/09/29 02:23:14;;;;;;;2.80;2.53;;;21.30;57.80;;;;;;4959763;28;20272;-79
2023/09/29 02:25:41;;;;;;;2.65;2.45;;;21.20;57.60;;;;;;4974276;28;20194;-79
2023/09/29 02:28:09;;;;;;;2.60;2.40;;;21.20;57.70;;;;;;4975384;28;20241;-79
2023/09/29 02:30:36;;;;;;;4.70;2.40;;;21.30;57.80;;;;;;4958437;28;20222;-79
2023/09/29 02:33:06;;;;;;;3.88;2.60;;;21.20;57.70;;;;;;4974312;28;20288;-79
2023/09/29 02:35:32;;;;;;;2.65;2.38;;;21.20;57.70;;;;;;4986366;28;20217;-79
2023/09/29 02:38:03;;;;;;;2.42;2.22;;;21.20;57.60;;;;;;4958187;28;20198;-79
2023/09/29 02:40:30;;;;;;;2.63;2.42;;;21.20;57.70;;;;;;4973694;28;20221;-79
2023/09/29 02:42:57;;;;;;;3.25;2.63;;;21.30;57.80;;;;;;4973917;28;20206;-79
2023/09/29 02:45:25;;;;;;;2.80;2.60;;;21.20;57.70;;;;;;4973662;28;20749;-79
2023/09/29 02:47:53;;;;;;;3.10;2.28;;;21.20;57.80;;;;;;4973927;28;20206;-79
2023/09/29 02:50:21;;;;;;;2.95;2.55;;;21.20;57.80;;;;;;4957934;28;20585;-79
2023/09/29 02:52:51;;;;;;;2.95;2.33;;;21.20;57.80;;;;;;4958787;28;20272;-79
2023/09/29 02:55:19;;;;;;;2.42;2.22;;;21.20;57.90;;;;;;4974458;28;20253;-79
2023/09/29 02:57:46;;;;;;;2.70;2.50;;;21.10;57.80;;;;;;4974280;28;20735;-79
2023/09/29 03:00:18;;;;;;;2.50;2.20;;;21.10;57.90;;;;;;4974160;28;20231;-79
2023/09/29 03:02:45;;;;;;;3.35;2.35;;;21.10;57.80;;;;;;4977828;28;20197;-79
2023/09/29 03:05:14;;;;;;;2.83;2.55;;;21.10;57.90;;;;;;4977975;28;20202;-79
2023/09/29 03:07:42;;;;;;;2.30;2.10;;;21.10;57.90;;;;;;4977783;28;20229;-79
2023/09/29 03:10:12;;;;;;;2.78;2.30;;;21.20;58.00;;;;;;4978227;28;20280;-79
2023/09/29 03:12:39;;;;;;;2.40;2.20;;;21.10;57.80;;;;;;4977567;28;20657;-79
2023/09/29 03:15:08;;;;;;;3.10;2.80;;;21.10;57.80;;;;;;4977925;28;20206;-79
2023/09/29 03:17:35;;;;;;;2.72;2.40;;;21.10;57.90;;;;;;4977432;28;20245;-79
2023/09/29 03:20:12;;;;;;;2.53;2.28;;;21.20;57.90;;;;;;4977435;28;20780;-79
2023/09/29 03:22:39;;;;;;;2.90;2.40;;;21.20;57.80;;;;;;4977905;28;20202;-79
2023/09/29 03:25:10;;;;;;;2.60;2.40;;;21.20;58.00;;;;;;4977399;28;20220;-79
2023/09/29 03:27:38;;;;;;;2.45;2.20;;;21.20;57.60;;;;;;4977605;28;20656;-79
2023/09/29 03:30:08;;;;;;;3.33;2.50;;;21.30;57.50;;;;;;4977228;28;20648;-79
2023/09/29 03:32:35;;;;;;;2.72;2.53;;;21.30;57.50;;;;;;4977550;28;20202;-79
2023/09/29 03:35:04;;;;;;;3.13;2.45;;;21.30;57.30;;;;;;4976989;28;20616;-79
2023/09/29 03:37:35;;;;;;;3.10;2.58;;;21.40;57.30;;;;;;4977070;28;20202;-79
2023/09/29 03:40:06;;;;;;;2.60;2.33;;;21.40;57.20;;;;;;4977467;28;20313;-79
2023/09/29 03:42:36;;;;;;;2.85;2.35;;;21.40;57.10;;;;;;4977044;28;20226;-79
2023/09/29 03:45:05;;;;;;;3.15;2.10;;;21.40;57.10;;;;;;4978300;28;20198;-79
2023/09/29 03:47:33;;;;;;;2.55;2.30;;;21.50;57.10;;;;;;5003556;23;20281;-80
2023/09/29 03:50:01;;;;;;;2.55;2.20;;;21.50;57.00;;;;;;5053323;28;20208;-80
2023/09/29 03:52:29;;;;;;;2.88;2.30;;;21.50;57.00;;;;;;5036296;28;20540;-80
2023/09/29 03:54:57;;;;;;;2.40;2.20;;;21.40;56.90;;;;;;5036562;28;20279;-80
2023/09/29 03:57:24;;;;;;;2.63;2.20;;;21.50;57.00;;;;;;5036047;28;20202;-80
2023/09/29 03:59:53;;;;;;;2.35;2.15;;;21.50;56.90;;;;;;5036247;28;20242;-80
2023/09/29 04:02:20;;;;;;;2.78;2.50;;;21.50;56.90;;;;;;5020580;28;20554;-80
2023/09/29 04:04:47;;;;;;;2.40;2.20;;;21.50;56.90;;;;;;5036386;28;20561;-80
2023/09/29 04:07:15;;;;;;;2.63;2.10;;;21.50;56.90;;;;;;5035655;28;20196;-80
2023/09/29 04:09:42;;;;;;;2.35;2.15;;;21.40;56.90;;;;;;5035609;28;20756;-80
2023/09/29 04:12:09;;;;;;;2.50;2.30;;;21.50;56.90;;;;;;5035179;28;20196;-80
2023/09/29 04:14:36;;;;;;;2.20;2.00;;;21.40;56.90;;;;;;5035742;28;20705;-80
2023/09/29 04:17:05;;;;;;;3.00;2.42;;;21.50;56.90;;;;;;5035579;28;20196;-80
2023/09/29 04:19:34;;;;;;;2.47;2.25;;;21.50;56.90;;;;;;5035056;28;20221;-80
2023/09/29 04:22:02;;;;;;;2.35;2.15;;;21.50;56.90;;;;;;5036981;28;20673;-80
2023/09/29 04:24:28;;;;;;;2.38;2.17;;;21.50;56.90;;;;;;5035700;28;20196;-80
2023/09/29 04:26:56;;;;;;;2.83;2.40;;;21.40;56.80;;;;;;5035639;28;20210;-77
2023/09/29 04:29:23;;;;;;;2.10;1.90;;;21.50;57.00;;;;;;5018819;28;20251;-77
2023/09/29 04:31:50;;;;;;;2.50;2.30;;;21.40;56.90;;;;;;5035312;28;20610;-77
2023/09/29 04:34:18;;;;;;;2.30;2.10;;;21.50;57.00;;;;;;5019762;28;20287;-77
2023/09/29 04:36:46;;;;;;;2.67;2.35;;;21.40;56.90;;;;;;5035199;28;20204;-77
2023/09/29 04:39:12;;;;;;;2.58;2.38;;;21.40;57.10;;;;;;5035677;28;20240;-79
2023/09/29 04:41:40;;;;;;;3.17;2.42;;;21.40;57.20;;;;;;5034979;28;20674;-76
2023/09/29 04:44:07;;;;;;;2.40;2.20;;;21.40;56.30;;;;;;5034742;28;20192;-76
2023/09/29 04:46:34;;;;;;;2.50;2.15;;;21.30;55.60;;;;;;5034776;28;20200;-77
2023/09/29 04:49:03;;;;;;;2.90;2.22;;;21.30;55.80;;;;;;5035643;28;20188;-77
2023/09/29 04:51:33;;;;;;;3.00;2.40;;;21.30;55.60;;;;;;5034843;28;20200;-77
2023/09/29 04:54:00;;;;;;;3.13;2.50;;;21.30;55.60;;;;;;5034551;28;20207;-77
2023/09/29 04:56:27;;;;;;;3.50;2.53;;;21.30;55.90;;;;;;5035725;28;20230;-77
2023/09/29 04:58:54;;;;;;;2.75;2.55;;;21.30;55.90;;;;;;5034668;28;20196;-77
2023/09/29 05:01:23;;;;;;;2.63;2.22;;;21.20;55.80;;;;;;5018103;28;20298;-77
2023/09/29 05:03:51;;;;;;;2.45;2.25;;;21.20;56.00;;;;;;5034426;28;20572;-77
2023/09/29 05:06:18;;;;;;;2.83;2.53;;;21.20;56.30;;;;;;5034422;28;20192;-77
2023/09/29 05:08:46;;;;;;;2.60;2.40;;;21.20;56.30;;;;;;5035218;28;20200;-77
2023/09/29 05:11:21;;;;;;;2.63;2.42;;;21.20;56.20;;;;;;5035445;28;20184;-77
2023/09/29 05:13:48;;;;;;;3.38;2.25;;;21.20;56.10;;;;;;5034259;28;20198;-77
2023/09/29 05:16:15;;;;;;;2.78;2.22;;;21.20;56.20;;;;;;5017684;28;20219;-75
2023/09/29 05:18:43;;;;;;;2.97;2.63;;;21.20;56.30;;;;;;5034095;28;20200;-76
2023/09/29 05:21:10;;;;;;;3.08;2.30;;;21.20;56.10;;;;;;5033943;28;20310;-76
2023/09/29 05:23:38;;;;;;;2.55;2.35;;;21.20;55.90;;;;;;5033780;28;20200;-76
2023/09/29 05:26:07;;;;;;;2.83;2.50;;;21.20;55.90;;;;;;5033933;28;20224;-76
2023/09/29 05:28:34;;;;;;;2.75;2.47;;;21.10;55.70;;;;;;5034230;28;20205;-76
2023/09/29 05:31:02;;;;;;;4.53;2.50;;;21.10;55.60;;;;;;5033637;28;20713;-76
2023/09/29 05:33:29;;;;;;;3.90;2.40;;;21.10;55.40;;;;;;5033959;28;20263;-76
2023/09/29 05:35:56;;;;;;;2.92;2.53;;;21.10;55.50;;;;;;5033777;28;20199;-76
2023/09/29 05:38:23;;;;;;;2.67;2.38;;;21.10;55.50;;;;;;5033642;28;20196;-77
2023/09/29 05:40:50;;;;;;;2.70;2.50;;;21.10;55.80;;;;;;5034120;28;20720;-78
2023/09/29 05:43:18;;;;;;;3.03;2.40;;;21.10;56.00;;;;;;5034310;28;20196;-76
2023/09/29 05:45:45;;;;;;;2.55;2.35;;;21.10;56.00;;;;;;5035711;28;20222;-79
2023/09/29 05:48:12;;;;;;;2.67;2.47;;;21.10;56.20;;;;;;5034050;28;20204;-79
2023/09/29 05:50:39;;;;;;;3.30;2.28;;;21.10;56.30;;;;;;5033907;28;20270;-79
2023/09/29 05:53:06;;;;;;;3.08;2.75;;;21.00;56.00;;;;;;5033763;28;20658;-79
2023/09/29 05:55:34;;;;;;;2.90;2.60;;;21.10;56.00;;;;;;5033639;28;20208;-79
2023/09/29 05:58:01;;;;;;;2.53;2.33;;;21.10;56.00;;;;;;5033681;28;20322;-79
2023/09/29 06:00:30;;;;;;;2.47;2.28;;;21.20;56.00;;;;;;5034335;28;20670;-79
2023/09/29 06:02:57;;;;;;;3.40;2.50;;;21.10;56.00;;;;;;5033704;28;20664;-79
2023/09/29 06:05:24;;;;;;;2.80;2.60;;;21.20;55.90;;;;;;5033357;28;20227;-79
2023/09/29 06:07:51;;;;;;;2.97;2.60;;;21.10;55.80;;;;;;5033642;28;20200;-79
2023/09/29 06:10:18;;;;;;;2.83;2.40;;;21.20;56.00;;;;;;5034442;28;20208;-79
2023/09/29 06:12:45;;;;;;;2.58;2.35;;;21.10;56.00;;;;;;5033176;28;20192;-79
2023/09/29 06:15:12;;;;;;;2.67;2.40;;;21.20;55.90;;;;;;5035583;28;20200;-79
2023/09/29 06:17:41;;;;;;;2.67;2.47;;;21.30;56.00;;;;;;5041598;28;20204;-79
2023/09/29 06:20:09;;;;;;;2.75;2.40;;;21.30;56.00;;;;;;5032851;28;20274;-79
2023/09/29 06:22:36;;;;;;;2.50;2.30;;;21.30;55.80;;;;;;5034402;28;20220;-79
2023/09/29 06:25:02;;;;;;;2.92;2.55;;;21.40;55.70;;;;;;5032655;28;20689;-79
2023/09/29 06:27:30;;;;;;;3.20;2.45;;;21.40;55.70;;;;;;5033672;28;20212;-79
2023/09/29 06:29:57;;;;;;;5.03;2.70;;;21.40;55.60;;;;;;5019098;28;20314;-79
2023/09/29 06:32:24;;;;;;;2.67;2.47;;;21.50;56.30;;;;;;5035152;28;20188;-79
2023/09/29 06:34:52;;;;;;;2.67;2.42;;;21.50;55.40;;;;;;5033892;28;20195;-79
2023/09/29 06:37:19;;;;;;;3.20;2.40;;;21.50;55.40;;;;;;5033436;28;20203;-79
2023/09/29 06:39:46;;;;;;;2.88;2.63;;;21.60;55.30;;;;;;5033582;28;20230;-79
2023/09/29 06:42:13;;;;;;;3.13;2.70;;;21.70;55.30;;;;;;5034297;28;20288;-79
2023/09/29 06:44:41;;;;;;;3.42;2.60;;;21.70;55.40;;;;;;5033668;28;20192;-79
2023/09/29 06:47:07;;;;;;;2.72;2.35;;;21.70;55.00;;;;;;5033786;28;20269;-79
2023/09/29 06:49:35;;;;;;;3.42;2.83;;;21.80;54.90;;;;;;5033438;28;20220;-79
2023/09/29 06:52:04;;;;;;;5.45;2.97;;;21.80;54.90;;;;;;5033717;28;20293;-79
2023/09/29 06:54:31;;;;;;;2.70;2.38;;;21.90;54.80;;;;;;5033558;28;20227;-79
2023/09/29 06:56:58;;;;;;;2.65;2.45;;;21.80;54.70;;;;;;5033409;28;20204;-79
2023/09/29 06:59:24;;;;;;;3.03;2.38;;;21.90;54.70;;;;;;5032425;28;20219;-79
2023/09/29 07:01:51;;;;;;;3.20;2.72;;;21.90;54.40;;;;;;5032837;28;20288;-79
2023/09/29 07:04:18;;;;;;;4.40;2.88;;;21.90;54.40;;;;;;5032605;28;20716;-79
2023/09/29 07:06:46;;;;;;;3.15;2.60;;;21.90;54.30;;;;;;5032658;28;20208;-79
2023/09/29 07:09:14;;;;;;;4.45;2.97;;;21.90;54.40;;;;;;5032265;28;20243;-79
2023/09/29 07:11:42;;;;;;;4.18;2.55;;;21.90;54.30;;;;;;5032774;28;20206;-79
2023/09/29 07:14:08;;;;;;;3.47;2.60;;;21.90;54.30;;;;;;5032510;28;20196;-79
2023/09/29 07:16:36;;;;;;;3.33;2.70;;;21.90;54.40;;;;;;5032395;28;20204;-79
2023/09/29 07:19:03;;;;;;;4.15;2.65;;;22.00;54.30;;;;;;5032444;28;20212;-79
2023/09/29 07:21:30;;;;;;;2.95;2.65;;;21.90;54.30;;;;;;5032520;28;20748;-79
2023/09/29 07:23:57;;;;;;;3.05;2.63;;;22.00;54.10;;;;;;5032557;28;20314;-79
2023/09/29 07:26:26;;;;;;;3.22;2.83;;;22.00;54.10;;;;;;5032859;28;20211;-79
2023/09/29 07:28:54;;;;;;;3.22;2.80;;;22.00;54.10;;;;;;5016438;28;20258;-79
2023/09/29 07:31:21;;;;;;;4.50;2.90;;;22.00;54.10;;;;;;5033211;28;20612;-79
2023/09/29 07:33:48;;;;;;;3.92;3.00;;;22.00;54.10;;;;;;5034320;28;20196;-79
2023/09/29 07:36:15;;;;;;;5.47;2.80;;;22.10;54.10;;;;;;5033358;28;20227;-79
2023/09/29 07:38:42;;;;;;;4.68;2.95;;;22.10;54.10;;;;;;5032915;28;20196;-79
2023/09/29 07:41:10;;;;;;;3.33;2.88;;;22.10;54.10;;;;;;5032379;28;20315;-79
2023/09/29 07:43:41;;;;;;;3.53;2.85;;;22.10;53.90;;;;;;5032779;28;20200;-79
2023/09/29 07:46:09;;;;;;;2.75;2.55;;;22.20;53.90;;;;;;5032812;28;20200;-79
2023/09/29 07:48:36;;;;;;;3.03;2.67;;;22.20;53.90;;;;;;5034350;28;20214;-79
2023/09/29 07:51:03;;;;;;;5.75;3.05;;;22.20;53.80;;;;;;5036253;28;20211;-79
2023/09/29 07:53:31;;;;;;;2.88;2.58;;;22.20;53.80;;;;;;5036694;28;20226;-79
2023/09/29 07:55:58;;;;;;;3.15;2.85;;;22.20;53.80;;;;;;5036387;28;20254;-79
2023/09/29 07:58:24;;;;;;;3.15;2.80;;;22.20;53.80;;;;;;5037176;28;20596;-79
2023/09/29 08:00:53;;;;;;;3.30;2.90;;;22.20;53.80;;;;;;5036126;28;20310;-79
2023/09/29 08:03:20;;;;;;;3.17;2.63;;;22.20;53.80;;;;;;5035631;28;20200;-79
2023/09/29 08:05:49;;;;;;;3.58;2.50;;;22.30;53.80;;;;;;5019210;28;20196;-79
2023/09/29 08:08:15;;;;;;;3.35;2.60;;;22.40;53.60;;;;;;5020174;28;20222;-79
2023/09/29 08:10:43;;;;;;;3.35;2.60;;;22.50;53.40;;;;;;5038169;28;20256;-79
2023/09/29 08:13:10;;;;;;;3.78;2.92;;;22.60;53.30;;;;;;5036649;28;20192;-79
2023/09/29 08:15:37;;;;;;;3.35;2.53;;;22.60;53.10;;;;;;5035966;28;20203;-79
2023/09/29 08:18:06;;;;;;;4.45;3.00;;;22.70;53.10;;;;;;5036856;28;20250;-79
2023/09/29 08:20:34;;;;;;;3.10;2.55;;;22.70;52.90;;;;;;5035782;28;20288;-79
2023/09/29 08:23:01;;;;;;;3.97;2.75;;;22.80;53.00;;;;;;5036531;28;20224;-79
2023/09/29 08:25:29;;;;;;;3.83;3.30;;;22.80;53.00;;;;;;5035865;28;20200;-79
2023/09/29 08:27:57;;;;;;;4.78;3.00;;;22.90;52.90;;;;;;5018957;28;20196;-78
2023/09/29 08:30:24;;;;;;;3.35;2.63;;;23.00;52.60;;;;;;5035345;28;20759;-79
2023/09/29 08:32:51;;;;;;;3.88;2.60;;;23.00;52.60;;;;;;5035204;28;20592;-79
2023/09/29 08:35:20;;;;;;;2.63;2.42;;;23.10;52.50;;;;;;5035256;28;20270;-79
2023/09/29 08:37:49;;;;;;;3.90;2.80;;;23.20;52.50;;;;;;5034856;28;20211;-79
2023/09/29 08:40:17;;;;;;;2.90;2.50;;;23.30;52.20;;;;;;5034903;28;20219;-79
2023/09/29 08:42:46;;;;;;;3.58;2.80;;;23.40;52.00;;;;;;5036735;28;20211;-79
2023/09/29 08:45:13;;;;;;;4.55;2.40;;;23.60;51.80;;;;;;5035145;28;20192;-79
2023/09/29 08:47:41;;;;;;;3.28;2.60;;;23.60;51.40;;;;;;5035244;28;20250;-79
2023/09/29 08:50:08;;;;;;;2.53;2.33;;;23.80;51.40;;;;;;5035007;28;20270;-79
2023/09/29 08:52:37;;;;;;;2.97;2.67;;;23.80;51.30;;;;;;5035969;28;20287;-79
2023/09/29 08:55:04;;;;;;;2.42;2.22;;;23.80;51.10;;;;;;5034752;28;20262;-79
2023/09/29 08:57:32;;;;;;;2.95;2.60;;;24.00;50.90;;;;;;5034662;28;20204;-79
2023/09/29 08:59:59;;;;;;;3.40;2.60;;;24.10;50.80;;;;;;5034581;28;20224;-79
2023/09/29 09:02:26;;;;;;;2.97;2.50;;;24.20;50.50;;;;;;5018229;28;20247;-79
2023/09/29 09:04:53;;;;;;;2.85;2.55;;;24.30;50.20;;;;;;5034448;28;20294;-79
2023/09/29 09:07:21;;;;;;;2.60;2.40;;;24.40;50.00;;;;;;5034439;28;20204;-79
2023/09/29 09:09:50;;;;;;;2.83;2.58;;;24.40;49.80;;;;;;5034617;28;20246;-79
2023/09/29 09:12:18;;;;;;;3.10;2.30;;;24.50;49.80;;;;;;5035035;28;20200;-79
2023/09/29 09:14:45;;;;;;;3.17;2.40;;;24.60;49.40;;;;;;5034985;28;20200;-79
2023/09/29 09:17:13;;;;;;;2.65;2.45;;;24.70;49.50;;;;;;5036283;28;20330;-79
2023/09/29 09:19:45;;;;;;;2.30;2.10;;;24.70;49.20;;;;;;5035486;28;20669;-79
2023/09/29 09:22:16;;;;;;;2.78;2.33;;;24.80;49.00;;;;;;5034487;28;20231;-79
2023/09/29 09:24:43;;;;;;;2.60;2.40;;;24.90;48.80;;;;;;5034687;28;20196;-79
2023/09/29 09:27:13;;;;;;;3.00;2.70;;;25.00;49.40;;;;;;5034452;28;20235;-79
2023/09/29 09:29:41;;;;;;;2.72;2.47;;;25.00;48.60;;;;;;5034312;28;20303;-79
2023/09/29 09:32:10;;;;;;;2.60;2.40;;;25.10;48.60;;;;;;5034419;28;20290;-79
2023/09/29 09:34:37;;;;;;;2.70;2.30;;;25.10;48.50;;;;;;5036172;28;20180;-79
2023/09/29 09:37:06;;;;;;;3.05;2.17;;;25.10;48.40;;;;;;5035653;28;20211;-80
2023/09/29 09:39:33;;;;;;;2.50;2.30;;;25.20;48.30;;;;;;5035511;28;20270;-80
2023/09/29 09:42:03;;;;;;;2.70;2.38;;;25.20;48.30;;;;;;5035753;28;20299;-80
2023/09/29 09:44:32;;;;;;;2.47;2.08;;;25.10;48.30;;;;;;5034680;28;20642;-80
2023/09/29 09:49:36;;;;;;;2.45;2.25;;;25.10;48.70;;;;;;5005617;22;21373;-79
2023/09/29 09:52:06;;;;;;;2.40;2.20;;;25.00;48.80;;;;;;5039004;28;20191;-79
2023/09/29 09:54:36;;;;;;;4.15;2.47;;;24.90;48.90;;;;;;5056977;28;20176;-79
2023/09/29 09:57:08;;;;;;;2.45;2.25;;;24.90;49.10;;;;;;5065559;28;20266;-79
2023/09/29 09:59:37;;;;;;;3.25;2.70;;;24.80;49.20;;;;;;5032155;28;20227;-80
2023/09/29 10:02:07;;;;;;;2.38;2.17;;;24.80;49.30;;;;;;5018006;28;20204;-79
2023/09/29 10:04:34;;;;;;;2.58;2.38;;;24.80;49.40;;;;;;5001104;28;20211;-79
2023/09/29 10:07:01;;;;;;;2.45;2.20;;;24.90;49.40;;;;;;5017395;28;20204;-79
2023/09/29 10:09:28;;;;;;;2.47;2.28;;;24.90;49.30;;;;;;5017718;28;20274;-79
2023/09/29 10:11:58;;;;;;;4.10;2.40;;;24.80;49.20;;;;;;5015974;28;20207;-79
2023/09/29 10:14:26;;;;;;;3.53;2.35;;;24.80;49.30;;;;;;5017934;28;20208;-79
2023/09/29 10:17:03;;;;;;;2.65;2.20;;;24.80;49.40;;;;;;5020357;28;20200;-79
2023/09/29 10:19:37;;;;;;;2.70;2.50;;;24.70;49.40;;;;;;5035934;28;20215;-79
2023/09/29 10:22:04;;;;;;;2.63;2.40;;;24.80;49.60;;;;;;5037687;23;20283;-79
2023/09/29 10:24:31;;;;;;;2.45;2.20;;;24.80;49.50;;;;;;5022524;23;20225;-71
2023/09/29 10:26:59;;;;;;;2.30;2.10;;;24.80;49.60;;;;;;5013879;28;20192;-71
2023/09/29 10:29:28;;;;;;;2.50;2.30;;;24.80;49.60;;;;;;5013936;28;20213;-71
2023/09/29 10:32:10;;;;;;;2.78;2.38;;;24.80;49.60;;;;;;5012896;28;20540;-69
2023/09/29 10:34:37;;;;;;;2.60;2.40;;;24.70;49.50;;;;;;5012712;28;20196;-70
2023/09/29 10:37:04;;;;;;;3.08;2.78;;;24.70;49.50;;;;;;5013925;28;20188;-69
2023/09/29 10:39:31;;;;;;;2.25;2.05;;;24.80;49.60;;;;;;5012883;28;20224;-69
2023/09/29 10:41:59;;;;;;;2.60;2.40;;;24.70;49.50;;;;;;5012616;28;20665;-70
2023/09/29 10:44:28;;;;;;;2.63;2.28;;;24.70;49.50;;;;;;5014024;28;20559;-70
2023/09/29 10:46:55;;;;;;;2.97;2.10;;;24.80;49.60;;;;;;5012564;28;20715;-69
2023/09/29 10:49:32;;;;;;;2.78;2.53;;;24.80;49.50;;;;;;5012299;28;20479;-70
2023/09/29 10:52:00;;;;;;;2.40;2.20;;;24.90;50.10;;;;;;5012284;28;20219;-70
2023/09/29 10:54:27;;;;;;;2.60;2.40;;;24.90;49.40;;;;;;5013553;28;20193;-71
2023/09/29 10:56:54;;;;;;;2.40;2.10;;;24.90;49.30;;;;;;5012741;28;20287;-70
2023/09/29 10:59:22;;;;;;;2.00;1.80;;;24.90;49.20;;;;;;5012450;28;20248;-70
2023/09/29 11:01:49;;;;;;;2.35;2.15;;;24.90;49.30;;;;;;5012230;28;20216;-70
2023/09/29 11:04:16;;;;;;;2.30;2.10;;;24.90;49.20;;;;;;5012396;28;20238;-70
2023/09/29 11:06:46;;;;;;;2.28;2.05;;;24.90;49.40;;;;;;5013585;28;20192;-69
2023/09/29 11:09:16;;;;;;;2.30;2.10;;;24.90;49.60;;;;;;5012399;28;20274;-70
2023/09/29 11:11:43;;;;;;;2.25;2.05;;;24.90;49.60;;;;;;5012329;28;20193;-69
2023/09/29 11:14:11;;;;;;;1.98;1.88;;;24.90;49.60;;;;;;5013594;28;20205;-69
2023/09/29 11:16:38;;;;;;;2.30;2.10;;;24.90;49.60;;;;;;5012229;28;20251;-69
2023/09/29 11:19:10;;;;;;;2.42;2.20;;;24.90;49.60;;;;;;5012072;28;20224;-69
2023/09/29 11:21:38;;;;;;;2.17;1.98;;;24.90;49.60;;;;;;5013912;28;20247;-69
2023/09/29 11:24:08;;;;;;;2.60;2.10;;;24.90;49.60;;;;;;5017204;28;20193;-69
2023/09/29 11:26:39;;;;;;;2.45;2.25;;;24.90;49.60;;;;;;5016067;28;20193;-70
2023/09/29 11:29:06;;;;;;;2.35;2.15;;;24.90;49.70;;;;;;5015816;28;20225;-70
2023/09/29 11:31:33;;;;;;;2.17;2.00;;;25.00;49.70;;;;;;5017216;28;20197;-70
2023/09/29 11:34:00;;;;;;;2.22;2.03;;;25.00;49.70;;;;;;5016325;28;20193;-70
2023/09/29 11:36:29;;;;;;;2.42;2.22;;;25.00;49.70;;;;;;5016941;28;20548;-70
2023/09/29 11:38:56;;;;;;;2.30;2.10;;;25.00;49.70;;;;;;5015803;28;20271;-70
2023/09/29 11:41:25;;;;;;;3.45;2.20;;;25.00;49.70;;;;;;5015774;28;20204;-70
2023/09/29 11:43:52;;;;;;;2.22;2.03;;;25.10;49.80;;;;;;5015654;28;20282;-70
2023/09/29 11:46:20;;;;;;;2.20;2.00;;;25.10;49.70;;;;;;5015924;28;20200;-70
2023/09/29 11:48:47;;;;;;;2.00;1.70;;;25.10;49.80;;;;;;5015502;28;20315;-70
2023/09/29 11:51:14;;;;;;;2.30;2.10;;;25.10;49.80;;;;;;5017010;28;20192;-70
2023/09/29 11:53:42;;;;;;;2.10;1.90;;;25.10;49.80;;;;;;5016589;28;20195;-70
2023/09/29 11:56:09;;;;;;;2.40;2.20;;;25.10;49.80;;;;;;5016665;28;20251;-70
2023/09/29 11:58:39;;;;;;;2.13;1.95;;;25.10;49.80;;;;;;5015224;28;20224;-70
2023/09/29 12:01:08;;;;;;;1.92;1.80;;;25.10;49.80;;;;;;5015574;28;20216;-69
2023/09/29 12:03:35;;;;;;;2.28;2.08;;;25.10;49.80;;;;;;5016477;28;20263;-70
2023/09/29 12:06:03;;;;;;;2.25;2.05;;;25.10;49.80;;;;;;5015724;28;20196;-69
2023/09/29 12:08:30;;;;;;;2.25;2.05;;;25.20;49.80;;;;;;5015381;28;20274;-69
2023/09/29 12:10:57;;;;;;;2.50;2.10;;;25.10;49.80;;;;;;5015725;28;20674;-69
2023/09/29 12:13:24;;;;;;;2.15;1.95;;;25.20;49.90;;;;;;5015370;28;20196;-69
2023/09/29 12:15:53;;;;;;;2.13;1.92;;;25.10;49.80;;;;;;5015220;28;20200;-70
2023/09/29 12:18:20;;;;;;;2.30;2.10;;;25.10;49.80;;;;;;5015580;28;20595;-69
2023/09/29 12:20:52;;;;;;;2.40;2.20;;;25.10;49.80;;;;;;5015493;28;20263;-69
2023/09/29 12:23:19;;;;;;;2.38;1.90;;;25.10;49.80;;;;;;5015782;28;20302;-70
2023/09/29 12:25:47;;;;;;;2.28;2.08;;;25.20;49.90;;;;;;5016212;28;20207;-69
2023/09/29 12:28:14;;;;;;;2.08;1.85;;;25.10;49.90;;;;;;5015080;28;20217;-69
2023/09/29 12:30:43;;;;;;;2.20;2.00;;;25.10;49.80;;;;;;5014984;28;20583;-69
2023/09/29 12:33:12;;;;;;;2.20;2.00;;;25.10;49.90;;;;;;5015697;28;20195;-69
2023/09/29 12:35:39;;;;;;;2.10;1.92;;;25.10;49.90;;;;;;5014515;28;20284;-70
2023/09/29 12:38:06;;;;;;;2.22;2.03;;;25.10;49.90;;;;;;5016523;28;20258;-70
2023/09/29 12:40:34;;;;;;;2.15;1.95;;;25.10;50.00;;;;;;5015897;28;20199;-69
2023/09/29 12:43:02;;;;;;;2.05;1.85;;;25.10;50.00;;;;;;5014771;28;20234;-70
2023/09/29 12:45:29;;;;;;;2.25;2.05;;;25.10;50.00;;;;;;5014798;28;20207;-70
2023/09/29 12:47:58;;;;;;;2.17;1.98;;;25.10;50.10;;;;;;5014432;28;20220;-70
2023/09/29 12:50:26;;;;;;;2.90;1.90;;;25.10;50.20;;;;;;5016224;28;20192;-70
2023/09/29 12:52:53;;;;;;;2.15;2.00;;;25.10;50.20;;;;;;5014746;28;20327;-70